Time;durP1;ratioP1;P1;durP2;ratioP2;P2;SDS_P1;SDS_P2;PMS_P1;PMS_P2;Temp;Humidity;BMP_temperature;BMP_pressure;BME280_temperature;BME280_humidity;BME280_pressure;Samples;Min_cycle;Max_cycle;Signal;HPM_P1;HPM_P2
2021/06/22 00:02:03;;;;;;;7.60;5.28;;;;;;;23.26;59.27;99950.51;1724816;82;25884;-75
2021/06/22 00:04:30;;;;;;;10.78;5.80;;;;;;;23.23;59.40;99953.80;1776349;79;25851;-76
2021/06/22 00:06:57;;;;;;;7.78;5.50;;;;;;;23.23;59.57;99953.80;1739840;82;28246;-75
2021/06/22 00:09:24;;;;;;;11.60;5.55;;;;;;;23.26;59.65;99951.05;1775955;80;25817;-75
2021/06/22 00:11:51;;;;;;;9.85;5.85;;;;;;;23.26;59.68;99949.14;1749803;80;25795;-76
2021/06/22 00:14:18;;;;;;;9.23;5.40;;;;;;;23.28;59.86;99954.31;1775759;80;25841;-76
2021/06/22 00:16:45;;;;;;;12.18;5.72;;;;;;;23.29;59.88;99955.95;1739814;82;25826;-76
2021/06/22 00:19:13;;;;;;;7.85;5.22;;;;;;;23.29;59.83;99951.86;1776164;79;27385;-75
2021/06/22 00:21:40;;;;;;;9.23;5.62;;;;;;;23.30;59.95;99957.58;1729508;81;26664;-75
2021/06/22 00:24:08;;;;;;;11.08;5.78;;;;;;;23.29;59.99;99956.75;1780547;80;26504;-75
2021/06/22 00:26:35;;;;;;;12.78;6.15;;;;;;;23.28;60.10;99956.50;1753097;81;25946;-75
2021/06/22 00:29:03;;;;;;;8.60;5.42;;;;;;;23.27;60.11;99955.40;1755150;80;25900;-76
2021/06/22 00:31:30;;;;;;;10.58;5.65;;;;;;;23.25;60.13;99957.60;1729654;81;27637;-76
2021/06/22 00:33:57;;;;;;;9.28;5.70;;;;;;;23.25;60.11;99957.06;1780679;80;25875;-76
2021/06/22 00:36:24;;;;;;;11.43;4.83;;;;;;;23.25;60.24;99955.69;1754567;81;25857;-74
2021/06/22 00:38:51;;;;;;;9.93;5.28;;;;;;;23.23;60.24;99955.70;1780807;80;25830;-75
2021/06/22 00:41:21;;;;;;;8.50;5.30;;;;;;;23.21;60.40;99951.08;1729524;81;25806;-74
2021/06/22 00:43:48;;;;;;;11.50;6.10;;;;;;;23.13;60.52;99952.52;1780816;80;27569;-74
2021/06/22 00:46:16;;;;;;;11.05;6.60;;;;;;;23.07;60.63;99947.37;1753419;81;25639;-75
2021/06/22 00:48:43;;;;;;;10.05;5.90;;;;;;;23.03;60.86;99955.87;1705499;81;25817;-77
2021/06/22 00:51:10;;;;;;;14.43;6.95;;;;;;;23.00;60.97;99953.98;1729977;81;25899;-76
2021/06/22 00:53:37;;;;;;;10.85;6.78;;;;;;;23.00;61.14;99951.25;1754632;81;25883;-75
2021/06/22 00:56:05;;;;;;;11.55;6.37;;;;;;;22.98;61.08;99952.63;1755058;80;28313;-75
2021/06/22 00:58:37;;;;;;;10.13;5.92;;;;;;;22.98;61.25;99952.08;1780681;80;26188;-75
2021/06/22 01:01:04;;;;;;;11.68;6.70;;;;;;;22.97;61.31;99953.70;1730136;81;25782;-75
2021/06/22 01:03:32;;;;;;;13.32;6.35;;;;;;;22.95;61.33;99951.81;1780752;79;26441;-77
2021/06/22 01:06:01;;;;;;;9.83;6.42;;;;;;;22.91;61.47;99946.11;1754033;79;26057;-77
2021/06/22 01:08:28;;;;;;;8.08;6.40;;;;;;;22.84;61.64;99942.05;1780906;79;27299;-76
2021/06/22 01:10:55;;;;;;;9.45;6.35;;;;;;;22.79;61.73;99932.54;1730094;80;25934;-80
2021/06/22 01:13:23;;;;;;;9.53;6.67;;;;;;;22.73;61.73;99930.94;1780630;80;25738;-75
2021/06/22 01:15:50;;;;;;;12.07;6.92;;;;;;;22.71;61.88;99935.88;1753399;81;26529;-76
2021/06/22 01:18:17;;;;;;;15.23;6.65;;;;;;;22.69;61.96;99941.59;1780943;80;25268;-75
2021/06/22 01:21:05;;;;;;;9.38;7.17;;;;;;;22.65;62.19;99935.06;1759292;79;27512;-76
2021/06/22 01:23:34;;;;;;;13.43;7.22;;;;;;;22.60;62.33;99936.48;1722788;81;26580;-75
2021/06/22 01:26:02;;;;;;;15.03;7.42;;;;;;;22.58;62.43;99928.27;1723393;83;26598;-75
2021/06/22 01:28:31;;;;;;;13.30;6.75;;;;;;;22.55;62.67;99931.55;1735608;82;25871;-76
2021/06/22 01:31:01;;;;;;;10.05;7.33;;;;;;;22.51;62.68;99926.38;1677911;83;26475;-75
2021/06/22 01:33:29;;;;;;;9.40;7.15;;;;;;;22.46;62.81;99934.59;1723191;82;28349;-78
2021/06/22 01:35:57;;;;;;;10.85;6.85;;;;;;;22.44;62.94;99932.69;1723032;81;25414;-75
2021/06/22 01:38:24;;;;;;;12.30;7.17;;;;;;;22.40;63.11;99935.17;1676361;83;25831;-75
2021/06/22 01:40:53;;;;;;;15.15;7.47;;;;;;;22.41;63.35;99938.73;1697638;83;25942;-75
2021/06/22 01:43:24;;;;;;;15.20;7.30;;;;;;;22.41;63.57;99935.42;1723379;83;25958;-75
2021/06/22 01:45:53;;;;;;;18.42;8.10;;;;;;;22.37;63.55;99939.02;1723373;83;28555;-76
2021/06/22 01:48:20;;;;;;;14.20;7.80;;;;;;;22.37;63.75;99937.66;1699505;81;25905;-75
2021/06/22 01:50:47;;;;;;;10.93;7.22;;;;;;;22.39;63.87;99945.81;1721699;83;25684;-75
2021/06/22 01:53:16;;;;;;;12.73;7.58;;;;;;;22.40;63.85;99942.54;1723400;82;25944;-75
2021/06/22 01:55:49;;;;;;;16.57;7.55;;;;;;;22.39;63.95;99936.83;1700578;83;25926;-75
2021/06/22 01:58:19;;;;;;;9.53;7.42;;;;;;;22.36;63.92;99939.56;1699967;83;27520;-75
2021/06/22 02:01:00;;;;;;;11.35;7.55;;;;;;;22.36;64.10;99940.10;1721632;81;25884;-76
2021/06/22 02:03:35;;;;;;;11.33;8.48;;;;;;;22.35;64.24;99937.12;1723529;83;25322;-76
2021/06/22 02:06:03;;;;;;;13.85;7.75;;;;;;;22.33;64.19;99933.28;1723280;83;26480;-75
2021/06/22 02:08:30;;;;;;;12.93;7.85;;;;;;;22.32;64.31;99937.12;1676459;83;26597;-76
2021/06/22 02:10:57;;;;;;;13.58;7.78;;;;;;;22.31;64.44;99928.66;1721704;83;27294;-77
2021/06/22 02:13:35;;;;;;;12.78;7.78;;;;;;;22.27;64.53;99934.41;1723442;81;25879;-73
2021/06/22 02:16:13;;;;;;;15.03;8.18;;;;;;;22.24;64.56;99940.41;1723309;83;26664;-75
2021/06/22 02:18:40;;;;;;;11.53;7.95;;;;;;;22.19;64.93;99937.18;1677989;82;26093;-77
2021/06/22 02:21:08;;;;;;;11.73;8.35;;;;;;;22.17;64.82;99942.10;1714735;83;25880;-75
2021/06/22 02:23:38;;;;;;;11.83;7.97;;;;;;;22.15;64.97;99942.89;1710654;83;27586;-76
2021/06/22 02:26:06;;;;;;;14.78;8.83;;;;;;;22.14;65.05;99944.01;1709911;83;26040;-74
2021/06/22 02:28:34;;;;;;;9.43;7.60;;;;;;;22.13;65.24;99946.45;1720255;81;26550;-75
2021/06/22 02:31:03;;;;;;;9.10;8.20;;;;;;;22.11;65.34;99949.22;1719818;83;25931;-78
2021/06/22 02:33:32;;;;;;;10.00;7.90;;;;;;;22.11;65.44;99947.85;1710444;83;25750;-76
2021/06/22 02:35:59;;;;;;;11.40;7.78;;;;;;;22.11;65.52;99953.30;1710118;83;27585;-76
2021/06/22 02:38:28;;;;;;;10.25;8.03;;;;;;;22.11;65.47;99957.40;1718459;83;25756;-76
2021/06/22 02:40:56;;;;;;;12.45;8.40;;;;;;;22.12;65.68;99959.84;1719608;82;25912;-78
2021/06/22 02:43:25;;;;;;;10.90;8.18;;;;;;;22.16;65.71;99962.28;1744339;80;25877;-76
2021/06/22 02:45:52;;;;;;;9.45;8.10;;;;;;;22.14;65.70;99961.73;1709943;83;25816;-76
2021/06/22 02:48:21;;;;;;;13.43;7.87;;;;;;;22.11;65.77;99963.65;1685849;83;28419;-75
2021/06/22 02:50:48;;;;;;;14.35;8.13;;;;;;;22.11;65.92;99969.10;1672664;83;25797;-74
2021/06/22 02:53:16;;;;;;;12.55;7.90;;;;;;;22.10;65.90;99970.21;1744781;81;25841;-75
2021/06/22 02:55:44;;;;;;;11.73;8.50;;;;;;;22.10;66.09;99969.39;1710140;83;26555;-76
2021/06/22 02:58:13;;;;;;;11.60;8.48;;;;;;;22.07;66.00;99960.38;1685411;82;25952;-75
2021/06/22 03:00:42;;;;;;;13.58;8.40;;;;;;;22.05;66.12;99958.48;1743966;81;28282;-76
2021/06/22 03:03:11;;;;;;;11.70;8.85;;;;;;;22.05;66.39;99967.48;1744709;81;25971;-75
2021/06/22 03:05:46;;;;;;;11.73;8.28;;;;;;;22.06;66.56;99969.14;1710821;81;25850;-75
2021/06/22 03:08:15;;;;;;;15.90;8.18;;;;;;;22.06;66.52;99973.77;1706798;81;26468;-75
2021/06/22 03:10:42;;;;;;;12.43;8.33;;;;;;;22.06;66.65;99965.58;1735746;81;26574;-75
2021/06/22 03:13:09;;;;;;;10.38;8.00;;;;;;;22.04;66.55;99965.88;1785331;77;27661;-76
2021/06/22 03:15:37;;;;;;;13.22;8.60;;;;;;;22.04;66.64;99966.41;1789587;78;25854;-74
2021/06/22 03:18:05;;;;;;;12.37;9.10;;;;;;;22.06;66.79;99965.05;1781154;78;25828;-75
2021/06/22 03:20:33;;;;;;;12.37;7.97;;;;;;;22.10;66.83;99966.12;1758511;78;26564;-75
2021/06/22 03:23:01;;;;;;;10.82;8.73;;;;;;;22.15;66.85;99973.48;1798805;77;25786;-75
2021/06/22 03:25:29;;;;;;;10.53;8.60;;;;;;;22.20;66.92;99973.44;1765692;81;27564;-75
2021/06/22 03:27:57;;;;;;;14.07;9.30;;;;;;;22.25;66.86;99984.34;1735211;80;25837;-75
2021/06/22 03:30:26;;;;;;;13.03;8.73;;;;;;;22.31;66.95;99983.77;1744447;81;25776;-74
2021/06/22 03:32:53;;;;;;;13.50;9.70;;;;;;;22.35;66.91;99975.33;1775593;79;25921;-74
2021/06/22 03:35:20;;;;;;;15.63;10.03;;;;;;;22.39;66.94;99977.77;1739702;82;26528;-74
2021/06/22 03:37:47;;;;;;;16.65;9.23;;;;;;;22.41;66.87;99972.84;1735400;81;28326;-76
2021/06/22 03:40:16;;;;;;;11.83;8.70;;;;;;;22.44;66.96;99976.36;1750392;79;26508;-74
2021/06/22 03:42:46;;;;;;;15.58;9.10;;;;;;;22.46;67.03;99977.72;1766017;80;25581;-74
2021/06/22 03:45:15;;;;;;;10.82;8.38;;;;;;;22.53;67.12;99970.59;1733235;82;25844;-76
2021/06/22 03:47:45;;;;;;;11.08;9.13;;;;;;;22.57;67.11;99979.84;1732455;81;26673;-75
2021/06/22 03:50:14;;;;;;;14.03;9.20;;;;;;;22.61;67.19;99982.31;1771026;80;27550;-76
2021/06/22 03:52:41;;;;;;;15.80;9.45;;;;;;;22.67;67.19;99983.38;1769975;79;26602;-76
2021/06/22 03:55:26;;;;;;;14.18;9.65;;;;;;;22.74;67.20;99981.17;1738928;81;25795;-77
2021/06/22 03:58:02;;;;;;;15.43;9.45;;;;;;;22.77;67.17;99983.89;1719822;81;25598;-75
2021/06/22 04:00:31;;;;;;;17.55;9.58;;;;;;;22.77;67.24;99982.52;1699056;82;25730;-73
2021/06/22 04:03:01;;;;;;;18.45;9.68;;;;;;;22.81;67.21;99982.22;1775073;79;28300;-76
2021/06/22 04:05:32;;;;;;;15.18;9.05;;;;;;;22.89;67.60;99981.08;1747056;78;25951;-74
2021/06/22 04:08:00;;;;;;;15.35;9.43;;;;;;;22.93;67.19;99982.69;1737341;81;26068;-76
2021/06/22 04:10:29;;;;;;;13.98;10.03;;;;;;;22.95;67.35;99984.05;1745262;80;26497;-76
2021/06/22 04:12:57;;;;;;;17.62;9.60;;;;;;;23.02;67.33;99979.64;1732383;81;25807;-75
2021/06/22 04:15:24;;;;;;;14.15;9.33;;;;;;;23.08;67.31;99977.67;1730498;82;27509;-76
2021/06/22 04:18:01;;;;;;;13.53;10.60;;;;;;;23.15;67.33;99978.18;1768203;80;25787;-77
2021/06/22 04:20:28;;;;;;;15.80;9.80;;;;;;;23.19;67.19;99976.51;1728707;82;25868;-74
2021/06/22 04:22:56;;;;;;;15.75;9.90;;;;;;;23.22;67.18;99980.05;1750101;81;25874;-75
2021/06/22 04:25:24;;;;;;;16.12;10.13;;;;;;;23.31;67.29;99973.67;1747679;79;25789;-76
2021/06/22 04:27:51;;;;;;;14.83;10.05;;;;;;;23.38;67.25;99976.94;1741286;81;27383;-78
2021/06/22 04:30:19;;;;;;;14.70;10.23;;;;;;;23.45;67.06;99974.70;1755270;80;25727;-76
2021/06/22 04:32:47;;;;;;;12.20;10.13;;;;;;;23.49;66.92;99975.77;1780712;80;25708;-75
2021/06/22 04:35:15;;;;;;;15.10;10.88;;;;;;;23.53;66.86;99982.83;1751353;78;25920;-76
2021/06/22 04:37:42;;;;;;;19.60;10.32;;;;;;;23.57;66.90;99982.52;1780892;80;25801;-76
2021/06/22 04:40:11;;;;;;;17.25;9.95;;;;;;;23.60;66.98;99988.25;1730010;81;28176;-76
2021/06/22 04:42:38;;;;;;;12.78;10.13;;;;;;;23.68;66.98;99991.72;1780538;80;25724;-76
2021/06/22 04:45:07;;;;;;;18.15;10.98;;;;;;;23.78;66.80;99996.84;1781126;80;25797;-76
2021/06/22 04:47:36;;;;;;;;;;;;;;;23.84;67.06;99998.42;1720338;81;27288;-77
2021/06/22 04:50:05;;;;;;;18.10;10.28;;;;;;;23.88;66.80;99999.48;1754738;81;25764;-75
2021/06/22 04:52:33;;;;;;;14.07;10.30;;;;;;;23.90;66.80;99994.53;1780651;80;28274;-74
2021/06/22 04:55:00;;;;;;;16.45;10.80;;;;;;;23.97;66.81;99987.63;1753318;81;25852;-76
2021/06/22 04:57:28;;;;;;;14.10;10.15;;;;;;;24.03;66.70;99989.20;1728359;81;25342;-75
2021/06/22 04:59:57;;;;;;;16.07;10.32;;;;;;;24.11;66.68;99994.06;1780984;80;26444;-76
2021/06/22 05:02:24;;;;;;;14.38;9.85;;;;;;;24.18;66.68;99993.72;1780495;80;25814;-75
2021/06/22 05:04:51;;;;;;;22.27;12.13;;;;;;;24.27;66.58;99994.14;1751521;78;28097;-75
2021/06/22 05:07:18;;;;;;;19.77;11.10;;;;;;;24.32;66.35;99999.57;1754921;80;25845;-76
2021/06/22 05:09:45;;;;;;;18.75;10.95;;;;;;;24.35;66.32;100004.48;1754562;81;26559;-75
2021/06/22 05:12:13;;;;;;;14.70;10.58;;;;;;;24.37;66.20;100009.66;1780248;80;25839;-76
2021/06/22 05:14:40;;;;;;;21.40;10.23;;;;;;;24.45;66.41;100009.83;1751123;81;25677;-75
2021/06/22 05:17:07;;;;;;;23.12;11.75;;;;;;;24.58;66.22;100002.00;1716770;81;28139;-77
2021/06/22 05:19:34;;;;;;;20.48;10.88;;;;;;;24.70;66.34;100002.41;1754552;81;25961;-74
2021/06/22 05:22:01;;;;;;;20.25;9.88;;;;;;;24.79;66.00;100004.22;1769614;80;25854;-76
2021/06/22 05:24:28;;;;;;;18.90;10.23;;;;;;;24.87;65.91;100002.19;1721277;83;26346;-74
2021/06/22 05:26:55;;;;;;;18.17;10.53;;;;;;;24.92;65.73;99998.02;1733292;81;25920;-74
2021/06/22 05:29:22;;;;;;;21.80;10.20;;;;;;;24.99;65.50;99995.73;1701758;84;27540;-75
2021/06/22 05:31:49;;;;;;;20.32;10.80;;;;;;;25.07;65.74;99995.61;1743400;81;25921;-75
2021/06/22 05:34:16;;;;;;;19.00;10.60;;;;;;;25.16;66.00;99989.17;1700582;83;25900;-75
2021/06/22 05:36:43;;;;;;;17.32;9.83;;;;;;;25.26;65.82;99999.16;1720815;81;26303;-75
2021/06/22 05:39:10;;;;;;;23.10;10.40;;;;;;;25.35;65.18;100002.03;1701933;82;25748;-75
2021/06/22 05:41:37;;;;;;;18.50;11.03;;;;;;;25.42;65.11;100006.08;1744184;81;28852;-75
2021/06/22 05:44:05;;;;;;;21.17;10.95;;;;;;;25.52;65.25;100007.82;1749615;81;25767;-75
2021/06/22 05:46:32;;;;;;;18.42;10.72;;;;;;;25.62;65.07;100006.30;1735520;81;25865;-78
2021/06/22 05:49:00;;;;;;;15.40;9.95;;;;;;;25.71;64.65;100009.42;1724850;83;25871;-74
2021/06/22 05:51:27;;;;;;;16.25;9.83;;;;;;;25.80;64.82;100006.80;1723524;83;25832;-76
2021/06/22 05:53:54;;;;;;;22.02;10.80;;;;;;;25.90;64.72;100008.80;1723372;83;27465;-75
2021/06/22 05:56:21;;;;;;;19.80;11.00;;;;;;;25.93;63.86;100003.28;1735187;81;25803;-76
2021/06/22 05:58:48;;;;;;;17.65;9.65;;;;;;;25.98;63.81;100008.69;1700610;83;26462;-74
2021/06/22 06:01:15;;;;;;;21.62;10.15;;;;;;;26.05;63.58;100002.22;1722907;81;25841;-74
2021/06/22 06:03:42;;;;;;;20.00;10.10;;;;;;;26.11;63.72;99998.28;1723290;83;25776;-75
2021/06/22 06:06:09;;;;;;;19.65;9.63;;;;;;;26.17;63.25;99998.47;1760685;80;27577;-73
2021/06/22 06:08:37;;;;;;;19.57;9.00;;;;;;;26.23;63.31;100005.48;1699218;83;25725;-75
2021/06/22 06:11:05;;;;;;;17.10;8.43;;;;;;;26.33;63.65;100005.83;1723180;83;26569;-74
2021/06/22 06:13:34;;;;;;;17.55;8.53;;;;;;;26.38;63.44;100000.25;1733870;79;26547;-75
2021/06/22 06:16:01;;;;;;;22.93;9.50;;;;;;;26.45;62.98;99997.92;1731587;82;26551;-77
2021/06/22 06:18:28;;;;;;;23.15;9.68;;;;;;;26.50;62.83;99994.50;1724845;82;27537;-74
2021/06/22 06:20:57;;;;;;;20.62;8.80;;;;;;;26.58;62.63;99991.61;1759416;81;25639;-75
2021/06/22 06:23:32;;;;;;;16.12;8.70;;;;;;;26.63;62.42;99988.18;1690392;82;25845;-76
2021/06/22 06:25:57;;;;;;;18.00;8.70;;;;;;;26.66;62.84;99990.33;1761836;79;25957;-76
2021/06/22 06:28:28;;;;;;;15.20;8.40;;;;;;;26.74;62.47;99991.00;1744758;81;26471;-75
2021/06/22 06:30:53;;;;;;;21.73;9.05;;;;;;;26.81;62.39;99986.46;1741609;80;27633;-74
2021/06/22 06:33:20;;;;;;;17.52;9.35;;;;;;;26.90;62.53;99989.30;1751042;81;26228;-75
2021/06/22 06:35:47;;;;;;;24.00;9.98;;;;;;;26.97;62.39;99989.66;1753141;80;25729;-75
2021/06/22 06:38:14;;;;;;;18.65;8.78;;;;;;;27.09;62.59;99989.95;1762586;79;25893;-76
2021/06/22 06:40:41;;;;;;;16.48;9.10;;;;;;;27.18;62.54;99980.64;1762797;81;26552;-75
2021/06/22 06:43:08;;;;;;;22.98;8.23;;;;;;;27.27;62.89;99989.78;1789133;78;28173;-74
2021/06/22 06:45:35;;;;;;;24.50;9.05;;;;;;;27.36;62.33;99994.83;1745083;80;26541;-75
2021/06/22 06:48:05;;;;;;;20.45;8.65;;;;;;;27.39;61.88;100001.06;1763227;79;25804;-77
2021/06/22 06:50:32;;;;;;;19.20;8.63;;;;;;;27.46;62.08;99995.13;1763233;81;26597;-75
2021/06/22 06:52:59;;;;;;;26.48;8.60;;;;;;;27.55;61.54;99999.31;1789428;77;25772;-76
2021/06/22 06:55:27;;;;;;;15.93;7.15;;;;;;;27.57;61.14;100003.38;1789175;79;27495;-74
2021/06/22 06:58:01;;;;;;;18.20;8.13;;;;;;;27.59;61.09;100004.47;1789227;79;26351;-75
2021/06/22 07:00:31;;;;;;;21.33;7.97;;;;;;;27.62;61.15;100004.64;1763480;81;25779;-77
2021/06/22 07:02:58;;;;;;;18.90;7.72;;;;;;;27.66;60.28;100013.08;1789479;79;25803;-75
2021/06/22 07:05:26;;;;;;;19.92;8.73;;;;;;;27.73;60.18;100007.39;1745177;80;25684;-76
2021/06/22 07:07:53;;;;;;;18.87;7.95;;;;;;;27.83;60.47;100008.50;1738021;81;27625;-76
2021/06/22 07:10:20;;;;;;;26.42;8.13;;;;;;;27.94;60.67;100007.67;1763306;81;25779;-77
2021/06/22 07:12:47;;;;;;;17.30;8.35;;;;;;;28.08;60.80;100005.66;1789093;79;25808;-76
2021/06/22 07:15:16;;;;;;;22.05;7.45;;;;;;;28.18;60.93;100008.98;1745083;82;25810;-75
2021/06/22 07:17:43;;;;;;;16.70;7.12;;;;;;;28.24;59.79;100013.21;1763511;79;25824;-77
2021/06/22 07:20:11;;;;;;;19.75;8.25;;;;;;;28.28;59.83;100011.19;1789080;79;27620;-76
2021/06/22 07:22:38;;;;;;;26.35;7.87;;;;;;;28.29;59.21;100010.06;1789123;79;25808;-76
2021/06/22 07:25:06;;;;;;;15.23;7.03;;;;;;;28.30;58.98;100016.63;1744863;82;26475;-76
2021/06/22 07:27:33;;;;;;;19.77;7.37;;;;;;;28.32;59.21;100010.79;1754874;80;25880;-77
2021/06/22 07:30:00;;;;;;;19.02;8.13;;;;;;;28.39;59.24;100010.59;1754684;81;26495;-80
2021/06/22 07:32:28;;;;;;;15.58;8.43;;;;;;;28.44;59.40;100007.70;1779998;80;27539;-76
2021/06/22 07:34:55;;;;;;;21.62;8.80;;;;;;;28.50;59.21;100021.58;1753302;81;25750;-76
2021/06/22 07:37:22;;;;;;;18.85;7.12;;;;;;;28.54;58.73;100019.80;1754572;80;25750;-76
2021/06/22 07:39:49;;;;;;;17.02;7.75;;;;;;;28.54;58.07;100010.72;1753692;81;25861;-74
2021/06/22 07:42:16;;;;;;;16.93;7.58;;;;;;;28.52;58.10;100012.42;1779868;80;26573;-78
2021/06/22 07:44:43;;;;;;;18.62;8.55;;;;;;;28.61;58.40;100015.23;1753231;81;27515;-76
2021/06/22 07:47:10;;;;;;;19.62;7.17;;;;;;;28.71;58.86;100021.83;1753740;80;26642;-76
2021/06/22 07:49:37;;;;;;;22.13;6.90;;;;;;;28.77;58.40;100021.36;1754644;81;25738;-76
2021/06/22 07:52:06;;;;;;;21.12;7.55;;;;;;;28.86;57.65;100020.81;1754301;81;25774;-75
2021/06/22 07:54:33;;;;;;;21.68;7.72;;;;;;;28.92;57.94;100020.91;1753434;81;26279;-76
2021/06/22 07:57:00;;;;;;;22.87;6.85;;;;;;;28.96;57.76;100010.03;1754882;80;28172;-77
2021/06/22 07:59:27;;;;;;;20.27;7.17;;;;;;;28.98;58.13;100009.14;1754093;81;25601;-76
2021/06/22 08:01:54;;;;;;;18.65;6.00;;;;;;;28.98;57.12;100016.85;1754184;79;26468;-76
2021/06/22 08:04:21;;;;;;;20.15;6.60;;;;;;;29.03;56.70;100015.07;1753255;81;25830;-77
2021/06/22 08:06:48;;;;;;;15.30;6.30;;;;;;;29.03;57.11;100013.69;1780701;79;25981;-76
2021/06/22 08:09:15;;;;;;;16.87;6.90;;;;;;;29.08;56.79;100014.36;1729738;81;27584;-77
2021/06/22 08:11:42;;;;;;;19.75;7.25;;;;;;;29.14;56.98;100016.38;1753941;81;25957;-77
2021/06/22 08:14:09;;;;;;;19.67;6.37;;;;;;;29.23;56.19;100020.00;1753170;81;25748;-76
2021/06/22 08:16:36;;;;;;;18.35;7.40;;;;;;;29.33;55.64;100014.15;1729542;81;26640;-76
2021/06/22 08:19:05;;;;;;;11.73;6.53;;;;;;;29.36;55.68;100012.92;1754686;80;25748;-76
2021/06/22 08:21:32;;;;;;;21.12;7.15;;;;;;;29.41;55.54;100010.01;1752706;81;26883;-77
2021/06/22 08:24:00;;;;;;;20.80;6.60;;;;;;;29.45;55.26;100017.05;1700462;83;26587;-76
2021/06/22 08:26:27;;;;;;;13.83;6.03;;;;;;;29.44;54.89;100022.35;1677149;83;25909;-77
2021/06/22 08:28:54;;;;;;;14.50;5.92;;;;;;;29.46;54.51;100029.17;1699105;83;25868;-77
2021/06/22 08:31:21;;;;;;;15.40;6.33;;;;;;;29.52;54.52;100031.19;1733905;82;26584;-77
2021/06/22 08:33:48;;;;;;;14.80;5.35;;;;;;;29.55;54.72;100029.98;1723207;80;28158;-77
2021/06/22 08:36:15;;;;;;;15.80;5.67;;;;;;;29.57;54.39;100028.27;1699129;83;26177;-76
2021/06/22 08:38:42;;;;;;;20.08;6.28;;;;;;;29.62;54.04;100027.52;1699091;83;25835;-75
2021/06/22 08:41:09;;;;;;;17.40;6.60;;;;;;;29.65;54.22;100023.30;1733986;82;26530;-77
2021/06/22 08:43:37;;;;;;;16.62;7.00;;;;;;;29.68;54.30;100029.56;1723056;83;25854;-75
2021/06/22 08:46:05;;;;;;;16.97;6.05;;;;;;;29.74;53.94;100021.38;1699292;83;27531;-76
2021/06/22 08:48:33;;;;;;;16.00;6.30;;;;;;;29.80;54.19;100022.83;1698637;83;25906;-77
2021/06/22 08:51:00;;;;;;;15.03;6.12;;;;;;;29.83;53.97;100029.09;1733979;82;26639;-77
2021/06/22 08:53:28;;;;;;;16.50;5.90;;;;;;;29.85;53.35;100037.85;1723210;83;26521;-75
2021/06/22 08:55:55;;;;;;;19.65;6.00;;;;;;;29.94;53.98;100042.77;1699448;83;25978;-76
2021/06/22 08:58:22;;;;;;;14.05;5.62;;;;;;;29.98;53.81;100047.08;1723210;83;27476;-75
2021/06/22 09:00:51;;;;;;;17.17;6.58;;;;;;;30.06;53.11;100044.30;1733922;82;26443;-75
2021/06/22 09:03:26;;;;;;;18.98;6.53;;;;;;;30.09;52.80;100044.22;1723052;80;25863;-75
2021/06/22 09:06:04;;;;;;;23.92;6.53;;;;;;;30.13;52.77;100036.89;1722787;83;25942;-75
2021/06/22 09:08:32;;;;;;;13.55;5.58;;;;;;;30.21;53.07;100045.16;1723649;83;26386;-78
2021/06/22 09:11:14;;;;;;;17.17;5.78;;;;;;;30.25;53.23;100050.81;1733524;82;27984;-78
2021/06/22 09:13:44;;;;;;;14.07;6.67;;;;;;;30.33;52.46;100053.58;1723111;83;25955;-78
2021/06/22 09:16:16;;;;;;;11.67;6.87;;;;;;;30.41;52.88;100056.88;1700080;82;25933;-77
2021/06/22 09:18:45;;;;;;;15.38;7.30;;;;;;;30.46;52.64;100051.73;1700863;81;26451;-78
2021/06/22 09:21:24;;;;;;;12.58;6.62;;;;;;;30.45;51.96;100061.98;1733525;82;26140;-79
2021/06/22 09:23:55;;;;;;;18.20;7.10;;;;;;;30.49;51.66;100059.38;1753541;80;28110;-78
2021/06/22 09:26:32;;;;;;;16.10;6.15;;;;;;;30.59;52.28;100062.33;1755297;80;26578;-78
2021/06/22 09:29:09;;;;;;;16.55;4.92;;;;;;;30.68;51.19;100060.34;1754712;81;25728;-78
2021/06/22 09:31:36;;;;;;;15.75;5.75;;;;;;;30.80;50.62;100058.48;1780462;79;25873;-79
2021/06/22 09:34:03;;;;;;;21.50;6.33;;;;;;;30.91;50.48;100058.95;1753465;79;26595;-79
2021/06/22 09:36:31;;;;;;;18.73;5.95;;;;;;;30.99;50.53;100057.51;1729974;80;27461;-78
2021/06/22 09:39:06;;;;;;;16.02;5.67;;;;;;;31.09;50.10;100063.23;1754659;80;25756;-79
2021/06/22 09:41:39;;;;;;;19.57;5.78;;;;;;;31.13;49.68;100059.47;1780619;80;25808;-79
2021/06/22 09:44:11;;;;;;;7.50;5.83;;;;;;;31.13;49.00;100058.09;1781071;80;25808;-79
2021/06/22 09:46:54;;;;;;;12.50;6.55;;;;;;;31.10;49.81;100059.31;1753369;81;25806;-79
2021/06/22 09:49:31;;;;;;;16.48;6.97;;;;;;;31.19;50.45;100058.69;1732641;80;27435;-78
2021/06/22 09:52:04;;;;;;;13.15;6.33;;;;;;;31.19;49.99;100055.35;1754096;81;26496;-78
2021/06/22 09:54:47;;;;;;;15.13;6.30;;;;;;;31.20;50.18;100051.42;1780353;80;25880;-78
2021/06/22 09:57:17;;;;;;;17.90;6.67;;;;;;;31.24;49.87;100046.83;1753463;80;26491;-79
2021/06/22 10:00:08;;;;;;;13.45;5.45;;;;;;;31.37;49.99;100056.61;1754735;80;25612;-78
2021/06/22 10:02:51;;;;;;;19.57;6.12;;;;;;;31.48;49.63;100055.09;1731018;81;27663;-79
2021/06/22 10:05:19;;;;;;;13.70;5.05;;;;;;;31.59;49.44;100048.78;1780834;77;25782;-77
2021/06/22 10:07:46;;;;;;;12.70;4.47;;;;;;;31.67;47.80;100049.88;1753203;80;26413;-79
2021/06/22 10:10:13;;;;;;;12.78;4.58;;;;;;;31.72;47.40;100049.07;1730070;81;26502;-79
2021/06/22 10:12:44;;;;;;;9.33;4.87;;;;;;;31.83;47.26;100046.69;1754523;81;25690;-78
2021/06/22 10:15:16;;;;;;;11.28;5.47;;;;;;;31.89;47.48;100040.59;1753247;81;27448;-78
2021/06/22 10:17:46;;;;;;;10.50;4.60;;;;;;;31.94;46.80;100038.22;1753200;80;25753;-78
2021/06/22 10:20:13;;;;;;;13.40;4.15;;;;;;;31.98;46.90;100036.38;1705334;81;25749;-78
2021/06/22 10:22:42;;;;;;;10.08;5.25;;;;;;;31.96;45.32;100033.14;1754308;81;25765;-78
2021/06/22 10:25:10;;;;;;;7.15;4.80;;;;;;;31.88;45.85;100032.06;1780851;79;25491;-78
2021/06/22 10:27:37;;;;;;;13.25;4.80;;;;;;;31.92;46.77;100036.33;1753314;81;28597;-77
2021/06/22 10:30:07;;;;;;;9.68;5.10;;;;;;;32.00;46.80;100031.30;1727128;81;25344;-77
2021/06/22 10:32:35;;;;;;;11.65;5.08;;;;;;;32.04;45.65;100036.38;1741591;81;25856;-78
2021/06/22 10:35:10;;;;;;;13.40;4.72;;;;;;;32.08;46.55;100039.30;1780678;79;26423;-78
2021/06/22 10:37:41;;;;;;;10.85;4.67;;;;;;;32.12;45.75;100038.84;1753534;81;26499;-78
2021/06/22 10:40:27;;;;;;;12.85;4.83;;;;;;;32.11;46.95;100035.25;1728645;81;28169;-78
2021/06/22 10:42:58;;;;;;;9.55;4.67;;;;;;;32.18;46.39;100025.00;1752985;80;26495;-78
2021/06/22 10:45:25;;;;;;;8.10;4.42;;;;;;;32.20;46.67;100026.27;1781003;80;25853;-79
2021/06/22 10:47:59;;;;;;;9.90;4.67;;;;;;;32.17;45.82;100018.63;1753114;80;25911;-79
2021/06/22 10:50:30;;;;;;;10.35;4.67;;;;;;;32.20;46.97;100017.96;1752011;80;25812;-78
2021/06/22 10:53:08;;;;;;;13.10;4.78;;;;;;;32.24;46.28;100016.11;1754687;81;28242;-78
2021/06/22 10:55:47;;;;;;;12.98;5.35;;;;;;;32.24;45.66;100015.30;1739680;81;26472;-77
2021/06/22 10:58:16;;;;;;;9.35;4.65;;;;;;;32.20;46.08;100008.83;1753277;81;25763;-78
2021/06/22 11:01:01;;;;;;;8.18;5.12;;;;;;;32.13;45.76;100011.34;1727772;81;26445;-78
2021/06/22 11:03:33;;;;;;;10.98;5.08;;;;;;;32.07;45.21;100003.84;1753058;79;25805;-79
2021/06/22 11:06:18;;;;;;;10.40;4.87;;;;;;;32.14;45.59;100001.33;1780415;80;27521;-79
2021/06/22 11:08:45;;;;;;;7.22;4.35;;;;;;;32.15;44.86;100000.73;1753154;80;25775;-78
2021/06/22 11:11:16;;;;;;;11.35;4.85;;;;;;;32.21;45.31;99996.58;1725986;81;25819;-78
2021/06/22 11:13:54;;;;;;;11.38;4.53;;;;;;;32.30;44.48;99990.35;1729188;81;25808;-78
2021/06/22 11:16:25;;;;;;;15.58;4.12;;;;;;;32.31;44.19;99995.58;1753331;81;25708;-78
2021/06/22 11:18:58;;;;;;;9.43;3.75;;;;;;;32.25;44.05;99988.61;1753273;79;27521;-78
2021/06/22 11:21:46;;;;;;;6.60;3.90;;;;;;;32.20;43.99;99990.24;1751579;81;25880;-79
2021/06/22 11:24:26;;;;;;;13.10;5.28;;;;;;;32.19;43.75;99984.45;1747524;81;25818;-78
2021/06/22 11:27:02;;;;;;;10.63;4.53;;;;;;;32.23;43.79;99986.77;1749537;81;26480;-78
2021/06/22 11:29:40;;;;;;;12.05;4.37;;;;;;;32.39;43.87;99986.90;1723360;83;26493;-78
2021/06/22 11:32:07;;;;;;;12.70;4.53;;;;;;;32.49;43.81;99992.00;1723186;80;27529;-79